createdAt,value
2023-02-14T00:01:17.289Z,18.83
2023-02-14T00:03:43.924Z,19.73
2023-02-14T00:06:13.266Z,18.17
2023-02-14T00:08:41.135Z,19.17
2023-02-14T00:11:08.954Z,19.73
2023-02-14T00:13:35.814Z,19.20
2023-02-14T00:16:03.467Z,17.33
2023-02-14T00:18:48.767Z,19.90
2023-02-14T00:21:15.398Z,20.80
2023-02-14T00:23:42.115Z,19.50
2023-02-14T00:26:14.955Z,18.37
2023-02-14T00:28:41.648Z,20.50
2023-02-14T00:31:08.468Z,17.90
2023-02-14T00:33:35.148Z,18.37
2023-02-14T00:36:06.859Z,18.70
2023-02-14T00:38:33.963Z,18.47
2023-02-14T00:41:01.016Z,20.67
2023-02-14T00:43:28.027Z,20.27
2023-02-14T00:45:54.756Z,20.40
2023-02-14T00:48:21.458Z,20.73
2023-02-14T00:50:48.113Z,20.03
2023-02-14T00:53:14.836Z,20.00
2023-02-14T00:55:41.495Z,20.30
2023-02-14T00:58:08.121Z,20.80
2023-02-14T01:00:34.868Z,20.67
2023-02-14T01:03:01.498Z,20.30
2023-02-14T01:05:28.173Z,18.70
2023-02-14T01:07:54.791Z,20.27
2023-02-14T01:10:21.378Z,20.87
2023-02-14T01:12:47.976Z,20.47
2023-02-14T01:15:14.617Z,19.57
2023-02-14T01:17:41.212Z,20.17
2023-02-14T01:20:08.788Z,21.93
2023-02-14T01:22:36.798Z,18.77
2023-02-14T01:25:04.043Z,19.43
2023-02-14T01:27:31.007Z,21.23
2023-02-14T01:29:57.668Z,21.93
2023-02-14T01:32:24.370Z,18.60
2023-02-14T01:34:50.962Z,19.77
2023-02-14T01:37:17.669Z,19.50
2023-02-14T01:39:44.275Z,20.50
2023-02-14T01:42:11.532Z,21.00
2023-02-14T01:44:38.290Z,18.43
2023-02-14T01:47:07.815Z,19.10
2023-02-14T01:49:57.303Z,19.40
2023-02-14T01:52:30.896Z,20.77
2023-02-14T01:55:05.712Z,20.40
2023-02-14T01:57:39.717Z,20.20
2023-02-14T02:00:26.555Z,19.00
2023-02-14T02:02:54.582Z,20.17
2023-02-14T02:05:23.744Z,19.43
2023-02-14T02:07:56.522Z,20.00
2023-02-14T02:10:23.358Z,17.93
2023-02-14T02:12:52.682Z,19.07
2023-02-14T02:15:22.795Z,22.07
2023-02-14T02:18:02.827Z,21.03
2023-02-14T02:21:12.888Z,19.57
2023-02-14T02:23:39.511Z,21.53
2023-02-14T02:26:15.275Z,22.13
2023-02-14T02:28:47.849Z,20.40
2023-02-14T02:31:56.084Z,19.40
2023-02-14T02:34:37.792Z,19.33
2023-02-14T02:37:26.421Z,20.90
2023-02-14T02:40:01.932Z,21.90
2023-02-14T02:42:37.619Z,21.17
2023-02-14T02:45:26.286Z,21.70
2023-02-14T02:48:07.421Z,20.93
2023-02-14T02:50:56.573Z,22.57
2023-02-14T02:53:42.018Z,21.37
2023-02-14T02:56:41.013Z,21.50
2023-02-14T02:59:20.997Z,20.83
2023-02-14T03:01:59.474Z,20.00
2023-02-14T03:04:46.181Z,21.83
2023-02-14T03:07:32.022Z,22.13
2023-02-14T03:10:00.222Z,21.00
2023-02-14T03:12:37.725Z,22.23
2023-02-14T03:15:30.521Z,21.87
2023-02-14T03:18:33.714Z,22.07
2023-02-14T03:21:24.444Z,20.87
2023-02-14T03:24:07.334Z,22.00
2023-02-14T03:26:37.296Z,22.63
2023-02-14T03:29:22.285Z,21.33
2023-02-14T03:32:19.364Z,20.67
2023-02-14T03:35:08.077Z,20.87
2023-02-14T03:37:49.331Z,20.30
2023-02-14T03:40:40.378Z,20.53
2023-02-14T03:43:15.306Z,22.67
2023-02-14T03:45:51.883Z,21.00
2023-02-14T03:48:20.644Z,21.77
2023-02-14T03:50:49.301Z,23.00
2023-02-14T03:53:22.540Z,21.10
2023-02-14T03:56:22.911Z,22.73
2023-02-14T03:58:53.758Z,21.67
2023-02-14T04:01:34.470Z,22.83
2023-02-14T04:04:03.270Z,22.40
2023-02-14T04:06:29.984Z,21.27
2023-02-14T04:08:56.604Z,21.37
2023-02-14T04:11:24.578Z,21.70
2023-02-14T04:13:51.536Z,21.60
2023-02-14T04:16:18.262Z,22.33
2023-02-14T04:19:03.296Z,20.80
2023-02-14T04:21:29.974Z,20.27
2023-02-14T04:23:56.606Z,22.17
2023-02-14T04:26:23.201Z,21.80
2023-02-14T04:28:49.814Z,22.30
2023-02-14T04:31:17.390Z,22.40
2023-02-14T04:33:45.954Z,24.27
2023-02-14T04:36:12.553Z,22.90
2023-02-14T04:38:39.213Z,22.83
2023-02-14T04:41:06.102Z,22.50
2023-02-14T04:43:32.724Z,21.13
2023-02-14T04:45:59.305Z,23.17
2023-02-14T04:48:25.955Z,22.13
2023-02-14T04:50:53.802Z,21.17
2023-02-14T04:53:21.016Z,23.40
2023-02-14T04:55:50.996Z,22.23
2023-02-14T04:58:17.967Z,22.43
2023-02-14T05:00:44.843Z,19.83
2023-02-14T05:03:11.527Z,21.43
2023-02-14T05:05:38.267Z,21.90
2023-02-14T05:08:04.941Z,22.80
2023-02-14T05:10:31.661Z,21.93
2023-02-14T05:12:58.244Z,24.47
2023-02-14T05:15:24.852Z,21.73
2023-02-14T05:17:51.437Z,22.20
2023-02-14T05:20:18.154Z,21.50
2023-02-14T05:22:44.760Z,20.63
2023-02-14T05:25:11.417Z,22.27
2023-02-14T05:27:38.107Z,23.20
2023-02-14T05:30:05.291Z,23.83
2023-02-14T05:32:31.893Z,24.50
2023-02-14T05:35:00.955Z,21.90
2023-02-14T05:37:28.076Z,24.83
2023-02-14T05:39:54.675Z,22.47
2023-02-14T05:42:21.338Z,22.53
2023-02-14T05:44:48.723Z,21.90
2023-02-14T05:47:15.450Z,22.60
2023-02-14T05:49:42.096Z,20.47
2023-02-14T05:52:08.722Z,21.87
2023-02-14T05:54:35.458Z,21.47
2023-02-14T05:57:02.051Z,22.33
2023-02-14T05:59:28.659Z,22.63
2023-02-14T06:01:55.292Z,21.90
2023-02-14T06:04:22.045Z,20.50
2023-02-14T06:06:48.693Z,23.00
2023-02-14T06:09:15.392Z,23.17
2023-02-14T06:11:41.988Z,22.30
2023-02-14T06:14:08.586Z,22.10
2023-02-14T06:16:35.268Z,21.37
2023-02-14T06:19:02.220Z,22.13
2023-02-14T06:21:28.856Z,22.30
2023-02-14T06:23:55.510Z,22.97
2023-02-14T06:26:22.161Z,24.60
2023-02-14T06:28:56.953Z,21.63
2023-02-14T06:31:23.952Z,21.20
2023-02-14T06:33:51.764Z,22.13
2023-02-14T06:36:18.708Z,23.70
2023-02-14T06:38:45.396Z,20.90
2023-02-14T06:41:12.417Z,21.87
2023-02-14T06:43:39.066Z,22.80
2023-02-14T06:46:05.737Z,20.47
2023-02-14T06:48:32.698Z,21.67
2023-02-14T06:50:59.539Z,22.97
2023-02-14T06:53:26.406Z,20.37
2023-02-14T06:55:53.354Z,22.80
2023-02-14T06:58:20.147Z,21.17
2023-02-14T07:00:47.534Z,21.60
2023-02-14T07:03:14.232Z,20.43
2023-02-14T07:05:40.929Z,21.13
2023-02-14T07:08:08.161Z,20.00
2023-02-14T07:10:35.106Z,21.27
2023-02-14T07:13:02.023Z,21.00
2023-02-14T07:15:28.882Z,21.60
2023-02-14T07:17:55.593Z,20.53
2023-02-14T07:20:22.294Z,21.27
2023-02-14T07:22:48.975Z,20.97
2023-02-14T07:25:15.659Z,21.00
2023-02-14T07:27:42.758Z,21.27
2023-02-14T07:30:10.468Z,18.93
2023-02-14T07:32:38.627Z,18.20
2023-02-14T07:35:05.612Z,19.77
2023-02-14T07:37:33.708Z,20.63
2023-02-14T07:40:00.350Z,20.27
2023-02-14T07:42:27.240Z,19.80
2023-02-14T07:44:54.043Z,19.73
2023-02-14T07:47:20.665Z,19.67
2023-02-14T07:49:47.273Z,18.17
2023-02-14T07:52:13.868Z,18.63
2023-02-14T07:54:40.475Z,21.07
2023-02-14T07:57:07.093Z,19.10
2023-02-14T07:59:33.701Z,18.43
2023-02-14T08:02:00.625Z,18.50
2023-02-14T08:04:27.543Z,19.90
2023-02-14T08:06:54.763Z,17.20
2023-02-14T08:09:25.053Z,18.57
2023-02-14T08:12:11.865Z,19.43
2023-02-14T08:14:38.653Z,16.30
2023-02-14T08:17:07.226Z,19.37
2023-02-14T08:19:34.236Z,16.80
2023-02-14T08:22:00.952Z,17.07
2023-02-14T08:24:27.692Z,17.80
2023-02-14T08:26:54.569Z,18.30
2023-02-14T08:29:21.173Z,15.63
2023-02-14T08:31:48.759Z,16.50
2023-02-14T08:34:16.574Z,17.53
2023-02-14T08:36:43.616Z,18.90
2023-02-14T08:39:10.526Z,16.90
2023-02-14T08:41:37.384Z,17.70
2023-02-14T08:44:04.187Z,18.10
2023-02-14T08:46:30.966Z,17.67
2023-02-14T08:48:57.662Z,18.00
2023-02-14T08:51:25.804Z,17.77
2023-02-14T08:53:53.115Z,18.53
2023-02-14T08:56:21.401Z,16.97
2023-02-14T08:58:48.127Z,16.13
2023-02-14T09:01:17.596Z,17.87
2023-02-14T09:03:45.000Z,17.20
2023-02-14T09:06:15.831Z,17.07
2023-02-14T09:08:42.927Z,18.00
2023-02-14T09:11:11.831Z,16.87
2023-02-14T09:13:38.478Z,17.57
2023-02-14T09:16:06.796Z,20.80
2023-02-14T09:18:34.298Z,16.90
2023-02-14T09:21:01.755Z,16.13
2023-02-14T09:23:28.572Z,17.00
2023-02-14T09:26:03.725Z,16.57
2023-02-14T09:28:30.571Z,15.50
2023-02-14T09:30:58.648Z,15.73
2023-02-14T09:33:31.823Z,18.50
2023-02-14T09:36:13.499Z,17.20
2023-02-14T09:38:40.114Z,15.33
2023-02-14T09:41:09.557Z,14.90
2023-02-14T09:43:52.018Z,16.70
2023-02-14T09:46:20.487Z,15.33
2023-02-14T09:48:49.010Z,15.83
2023-02-14T09:51:20.168Z,16.10
2023-02-14T09:53:52.400Z,17.43
2023-02-14T09:56:22.210Z,17.30
2023-02-14T09:58:57.126Z,17.23
2023-02-14T10:01:29.503Z,15.73
2023-02-14T10:04:11.251Z,16.77
2023-02-14T10:06:59.034Z,16.57
2023-02-14T10:10:02.721Z,15.70
2023-02-14T10:12:57.180Z,17.27
2023-02-14T10:15:27.173Z,16.50
2023-02-14T10:18:18.925Z,16.10
2023-02-14T10:20:51.410Z,14.73
2023-02-14T10:23:26.953Z,15.17
2023-02-14T10:26:12.272Z,18.57
2023-02-14T10:28:45.891Z,15.43
2023-02-14T10:31:31.494Z,15.87
2023-02-14T10:34:32.633Z,16.37
2023-02-14T10:37:18.004Z,15.93
2023-02-14T10:40:18.984Z,15.80
2023-02-14T10:43:21.785Z,15.57
2023-02-14T10:46:17.066Z,15.27
2023-02-14T10:49:25.801Z,14.47
2023-02-14T10:52:22.560Z,17.50
2023-02-14T10:55:31.573Z,17.80
2023-02-14T10:58:01.373Z,17.27
2023-02-14T11:00:34.696Z,17.43
2023-02-14T11:03:05.849Z,18.97
2023-02-14T11:05:46.125Z,17.73
2023-02-14T11:08:19.687Z,17.40
2023-02-14T11:10:46.359Z,18.10
2023-02-14T11:13:37.471Z,18.27
2023-02-14T11:16:10.964Z,17.80
2023-02-14T11:18:39.959Z,19.10
2023-02-14T11:21:12.331Z,18.30
2023-02-14T11:23:42.157Z,18.43
2023-02-14T11:26:23.209Z,17.17
2023-02-14T11:28:59.946Z,16.17
2023-02-14T11:31:36.918Z,17.93
2023-02-14T11:34:06.887Z,17.03
2023-02-14T11:36:40.859Z,20.27
2023-02-14T11:39:24.980Z,18.23
2023-02-14T11:41:54.298Z,19.20
2023-02-14T11:44:24.134Z,18.57
2023-02-14T11:46:53.723Z,16.87
2023-02-14T11:49:30.851Z,19.13
2023-02-14T11:52:00.860Z,17.60
2023-02-14T11:54:49.442Z,16.70
2023-02-14T11:57:33.452Z,19.37
2023-02-14T12:00:03.308Z,16.77
2023-02-14T12:02:39.192Z,18.17
2023-02-14T12:05:19.490Z,17.30
2023-02-14T12:07:49.080Z,18.17
2023-02-14T12:10:15.742Z,16.63
2023-02-14T12:13:08.834Z,15.90
2023-02-14T12:15:37.578Z,17.80
2023-02-14T12:18:24.712Z,17.30
2023-02-14T12:21:16.407Z,17.70
2023-02-14T12:23:49.185Z,17.43
2023-02-14T12:26:18.832Z,17.43
2023-02-14T12:28:55.628Z,15.50
2023-02-14T12:31:22.327Z,16.13
2023-02-14T12:33:50.498Z,17.73
2023-02-14T12:36:59.253Z,16.53
2023-02-14T12:39:37.479Z,15.00
2023-02-14T12:42:06.824Z,16.00
2023-02-14T12:44:40.351Z,17.40
2023-02-14T12:47:38.867Z,16.03
2023-02-14T12:50:34.008Z,15.23
2023-02-14T12:53:25.784Z,15.43
2023-02-14T12:56:29.336Z,16.17
2023-02-14T12:59:08.906Z,16.03
2023-02-14T13:02:20.386Z,16.60
2023-02-14T13:04:53.180Z,17.00
2023-02-14T13:07:38.247Z,17.60
2023-02-14T13:10:37.704Z,16.80
2023-02-14T13:13:25.853Z,16.80
2023-02-14T13:16:15.760Z,15.57
2023-02-14T13:18:54.558Z,15.80
2023-02-14T13:21:25.581Z,14.67
2023-02-14T13:24:00.568Z,16.30
2023-02-14T13:26:35.694Z,17.97
2023-02-14T13:29:13.443Z,16.50
2023-02-14T13:31:41.455Z,14.93
2023-02-14T13:34:32.701Z,15.60
2023-02-14T13:37:02.477Z,15.63
2023-02-14T13:39:37.949Z,15.63
2023-02-14T13:42:06.140Z,14.83
2023-02-14T13:44:38.728Z,15.50
2023-02-14T13:47:07.058Z,15.50
2023-02-14T13:49:37.741Z,16.00
2023-02-14T13:52:06.437Z,19.40
2023-02-14T13:54:46.161Z,17.33
2023-02-14T13:57:36.626Z,16.47
2023-02-14T14:00:21.485Z,14.27
2023-02-14T14:02:49.111Z,16.97
2023-02-14T14:05:30.776Z,15.80
2023-02-14T14:08:26.755Z,15.57
2023-02-14T14:10:56.284Z,15.57
2023-02-14T14:13:41.021Z,31.37
2023-02-14T14:16:29.121Z,16.70
2023-02-14T14:19:24.912Z,16.13
2023-02-14T14:22:12.448Z,17.57
2023-02-14T14:24:51.909Z,14.97
2023-02-14T14:27:27.519Z,13.83
2023-02-14T14:29:55.227Z,14.37
2023-02-14T14:32:34.012Z,16.27
2023-02-14T14:35:04.040Z,14.50
2023-02-14T14:37:33.836Z,16.80
2023-02-14T14:40:09.531Z,15.47
2023-02-14T14:42:39.153Z,15.80
2023-02-14T14:45:27.707Z,15.90
2023-02-14T14:47:57.474Z,15.70
2023-02-14T14:50:30.883Z,15.93
2023-02-14T14:53:02.864Z,14.80
2023-02-14T14:55:33.218Z,15.30
2023-02-14T14:58:04.912Z,15.60
2023-02-14T15:00:34.428Z,14.90
2023-02-14T15:03:14.895Z,16.00
2023-02-14T15:05:50.209Z,16.27
2023-02-14T15:08:21.734Z,15.50
2023-02-14T15:11:00.546Z,14.50
2023-02-14T15:13:53.481Z,15.87
2023-02-14T15:16:51.007Z,14.03
2023-02-14T15:19:38.571Z,16.10
2023-02-14T15:22:07.696Z,15.63
2023-02-14T15:24:37.638Z,16.10
2023-02-14T15:27:05.382Z,15.00
2023-02-14T15:29:33.345Z,14.87
2023-02-14T15:32:03.204Z,15.17
2023-02-14T15:34:36.075Z,15.27
2023-02-14T15:37:06.170Z,16.53
2023-02-14T15:39:37.547Z,16.53
2023-02-14T15:42:05.844Z,14.93
2023-02-14T15:44:32.718Z,15.50
2023-02-14T15:47:03.982Z,13.80
2023-02-14T15:49:36.913Z,15.00
2023-02-14T15:52:06.062Z,14.63
2023-02-14T15:54:41.665Z,15.10
2023-02-14T15:57:20.955Z,15.90
2023-02-14T15:59:48.565Z,15.77
2023-02-14T16:02:37.687Z,15.00
2023-02-14T16:05:18.738Z,14.73
2023-02-14T16:08:06.008Z,15.40
2023-02-14T16:10:34.715Z,13.93
2023-02-14T16:13:14.752Z,15.30
2023-02-14T16:15:58.441Z,16.73
2023-02-14T16:18:48.942Z,14.20
2023-02-14T16:21:23.667Z,13.87
2023-02-14T16:24:06.439Z,12.53
2023-02-14T16:26:40.896Z,15.33
2023-02-14T16:29:10.091Z,18.00
2023-02-14T16:32:06.140Z,16.27
2023-02-14T16:34:30.252Z,16.07
2023-02-14T16:36:56.852Z,15.40
2023-02-14T16:39:25.063Z,16.40
2023-02-14T16:41:56.898Z,15.80
2023-02-14T16:44:23.551Z,15.00
2023-02-14T16:46:50.704Z,17.87
2023-02-14T16:49:17.306Z,15.90
2023-02-14T16:51:47.526Z,16.63
2023-02-14T16:54:20.180Z,18.00
2023-02-14T16:56:55.152Z,18.57
2023-02-14T16:59:21.767Z,16.13
2023-02-14T17:01:48.907Z,16.40
2023-02-14T17:04:15.802Z,16.97
2023-02-14T17:06:50.822Z,17.53
2023-02-14T17:09:24.282Z,16.20
2023-02-14T17:11:53.446Z,17.60
2023-02-14T17:14:24.013Z,18.43
2023-02-14T17:16:51.496Z,17.73
2023-02-14T17:19:18.276Z,18.57
2023-02-14T17:21:45.194Z,18.77
2023-02-14T17:24:11.817Z,19.03
2023-02-14T17:26:38.427Z,18.43
2023-02-14T17:29:06.786Z,20.00
2023-02-14T17:31:34.633Z,17.57
2023-02-14T17:34:01.321Z,17.47
2023-02-14T17:36:27.932Z,18.40
2023-02-14T17:38:54.782Z,18.63
2023-02-14T17:41:26.476Z,17.93
2023-02-14T17:44:00.155Z,19.40
2023-02-14T17:46:28.583Z,17.43
2023-02-14T17:48:56.345Z,18.10
2023-02-14T17:51:23.716Z,18.23
2023-02-14T17:53:50.958Z,18.40
2023-02-14T17:56:23.597Z,31.40
2023-02-14T17:58:52.075Z,20.20
2023-02-14T18:01:24.312Z,18.20
2023-02-14T18:03:54.286Z,18.87
2023-02-14T18:06:21.360Z,21.23
2023-02-14T18:08:50.377Z,20.20
2023-02-14T18:11:18.219Z,18.50
2023-02-14T18:13:45.354Z,20.00
2023-02-14T18:16:15.655Z,18.97
2023-02-14T18:18:42.849Z,19.70
2023-02-14T18:21:11.504Z,19.90
2023-02-14T18:23:38.605Z,18.87
2023-02-14T18:26:09.701Z,19.73
2023-02-14T18:28:36.359Z,18.27
2023-02-14T18:31:05.907Z,19.17
2023-02-14T18:33:33.517Z,17.20
2023-02-14T18:36:04.914Z,18.50
2023-02-14T18:38:31.535Z,17.40
2023-02-14T18:41:05.743Z,17.90
2023-02-14T18:43:32.394Z,17.67
2023-02-14T18:46:07.387Z,18.23
2023-02-14T18:48:35.281Z,17.47
2023-02-14T18:51:10.562Z,18.90
2023-02-14T18:53:39.160Z,19.43
2023-02-14T18:56:07.863Z,18.10
2023-02-14T18:58:35.346Z,15.93
2023-02-14T19:01:21.015Z,18.10
2023-02-14T19:03:49.657Z,18.03
2023-02-14T19:06:17.990Z,17.37
2023-02-14T19:08:45.340Z,19.40
2023-02-14T19:11:13.656Z,20.10
2023-02-14T19:13:44.975Z,19.00
2023-02-14T19:16:17.641Z,17.93
2023-02-14T19:18:44.714Z,19.20
2023-02-14T19:21:16.684Z,18.50
2023-02-14T19:23:44.070Z,19.47
2023-02-14T19:26:15.959Z,24.33
2023-02-14T19:28:43.661Z,21.77
2023-02-14T19:31:10.540Z,21.30
2023-02-14T19:33:38.584Z,16.80
2023-02-14T19:36:07.375Z,19.50
2023-02-14T19:38:35.269Z,19.20
2023-02-14T19:41:02.262Z,21.53
2023-02-14T19:43:29.090Z,23.80
2023-02-14T19:45:55.754Z,21.87
2023-02-14T19:48:22.960Z,20.60
2023-02-14T19:50:50.422Z,19.20
2023-02-14T19:53:17.040Z,19.60
2023-02-14T19:55:43.654Z,18.10
2023-02-14T19:58:10.403Z,20.77
2023-02-14T20:00:37.952Z,19.70
2023-02-14T20:03:05.173Z,20.67
2023-02-14T20:05:32.436Z,21.20
2023-02-14T20:07:59.366Z,19.93
2023-02-14T20:10:26.013Z,23.40
2023-02-14T20:12:52.628Z,22.00
2023-02-14T20:15:19.351Z,21.37
2023-02-14T20:17:47.011Z,21.43
2023-02-14T20:20:13.838Z,20.97
2023-02-14T20:22:40.998Z,21.30
2023-02-14T20:25:09.031Z,24.00
2023-02-14T20:27:36.470Z,21.67
2023-02-14T20:30:04.051Z,22.50
2023-02-14T20:32:30.711Z,23.20
2023-02-14T20:34:57.960Z,22.70
2023-02-14T20:37:25.341Z,23.03
2023-02-14T20:39:52.025Z,23.03
2023-02-14T20:42:18.729Z,23.17
2023-02-14T20:44:45.647Z,25.90
2023-02-14T20:47:12.349Z,22.93
2023-02-14T20:49:39.941Z,23.50
2023-02-14T20:52:06.619Z,24.57
2023-02-14T20:54:33.271Z,24.53
2023-02-14T20:56:59.921Z,24.53
2023-02-14T20:59:27.279Z,24.87
2023-02-14T21:01:55.376Z,23.30
2023-02-14T21:04:22.429Z,23.43
2023-02-14T21:06:49.179Z,24.57
2023-02-14T21:09:18.638Z,24.93
2023-02-14T21:11:45.305Z,22.40
2023-02-14T21:14:12.214Z,23.90
2023-02-14T21:16:38.857Z,24.43
2023-02-14T21:19:05.913Z,25.90
2023-02-14T21:21:36.320Z,24.03
2023-02-14T21:24:14.626Z,23.77
2023-02-14T21:26:42.618Z,23.43
2023-02-14T21:29:10.051Z,25.77
2023-02-14T21:31:37.311Z,25.17
2023-02-14T21:34:04.790Z,26.13
2023-02-14T21:36:35.682Z,25.23
2023-02-14T21:39:03.738Z,26.47
2023-02-14T21:41:31.401Z,26.30
2023-02-14T21:44:00.084Z,27.47
2023-02-14T21:46:32.617Z,26.87
2023-02-14T21:49:19.874Z,27.20
2023-02-14T21:51:47.486Z,25.83
2023-02-14T21:54:14.977Z,24.23
2023-02-14T21:56:42.597Z,28.00
2023-02-14T21:59:09.826Z,25.13
2023-02-14T22:01:38.896Z,27.13
2023-02-14T22:04:10.159Z,26.77
2023-02-14T22:06:38.703Z,24.30
2023-02-14T22:09:05.942Z,27.37
2023-02-14T22:11:33.038Z,29.47
2023-02-14T22:14:00.240Z,27.13
2023-02-14T22:16:27.384Z,26.17
2023-02-14T22:18:54.177Z,26.90
2023-02-14T22:21:23.491Z,27.47
2023-02-14T22:23:50.332Z,29.13
2023-02-14T22:26:23.564Z,29.27
2023-02-14T22:28:53.809Z,29.37
2023-02-14T22:31:20.742Z,29.70
2023-02-14T22:33:48.910Z,29.93
2023-02-14T22:36:16.460Z,29.33
2023-02-14T22:38:44.566Z,28.47
2023-02-14T22:41:16.963Z,31.07
2023-02-14T22:43:44.495Z,30.37
2023-02-14T22:46:17.177Z,28.30
2023-02-14T22:48:44.757Z,33.00
2023-02-14T22:51:26.472Z,31.50
2023-02-14T22:54:01.578Z,32.27
2023-02-14T22:56:31.383Z,30.63
2023-02-14T22:59:01.378Z,33.00
2023-02-14T23:01:28.594Z,30.20
2023-02-14T23:03:58.490Z,29.70
2023-02-14T23:06:27.245Z,29.10
2023-02-14T23:08:54.386Z,31.63
2023-02-14T23:11:23.617Z,28.63
2023-02-14T23:14:09.024Z,27.90
2023-02-14T23:16:54.538Z,28.40
2023-02-14T23:19:42.174Z,28.27
2023-02-14T23:22:13.423Z,27.17
2023-02-14T23:24:40.563Z,29.13
2023-02-14T23:27:08.984Z,27.93
2023-02-14T23:29:36.437Z,25.50
2023-02-14T23:32:04.450Z,25.70
2023-02-14T23:34:33.941Z,28.30
2023-02-14T23:37:00.817Z,30.90
2023-02-14T23:39:27.629Z,30.53
2023-02-14T23:41:55.140Z,28.43
2023-02-14T23:44:25.558Z,28.40
2023-02-14T23:46:54.846Z,28.77
2023-02-14T23:49:22.528Z,30.20
2023-02-14T23:51:50.452Z,29.73
2023-02-14T23:54:18.334Z,32.13
2023-02-14T23:56:45.691Z,31.13
2023-02-14T23:59:13.622Z,31.17
